sensor_id;sensor_type;location;lat;lon;timestamp;P1;durP1;ratioP1;P2;durP2;ratioP2
7336;SDS011;54510;42.016;23.098;2022-08-19T00:00:23;6.40;;;5.32;;
7336;SDS011;54510;42.016;23.098;2022-08-19T00:02:49;6.65;;;5.00;;
7336;SDS011;54510;42.016;23.098;2022-08-19T00:05:14;6.00;;;5.32;;
7336;SDS011;54510;42.016;23.098;2022-08-19T00:07:41;6.68;;;5.25;;
7336;SDS011;54510;42.016;23.098;2022-08-19T00:10:08;5.82;;;5.15;;
7336;SDS011;54510;42.016;23.098;2022-08-19T00:12:35;7.85;;;5.63;;
7336;SDS011;54510;42.016;23.098;2022-08-19T00:15:03;7.38;;;5.30;;
7336;SDS011;54510;42.016;23.098;2022-08-19T00:17:29;6.03;;;4.97;;
7336;SDS011;54510;42.016;23.098;2022-08-19T00:19:55;6.75;;;5.03;;
7336;SDS011;54510;42.016;23.098;2022-08-19T00:22:20;7.00;;;4.82;;
7336;SDS011;54510;42.016;23.098;2022-08-19T00:24:46;7.20;;;6.00;;
7336;SDS011;54510;42.016;23.098;2022-08-19T00:27:12;7.72;;;5.47;;
7336;SDS011;54510;42.016;23.098;2022-08-19T00:29:38;8.65;;;4.78;;
7336;SDS011;54510;42.016;23.098;2022-08-19T00:32:04;7.28;;;4.75;;
7336;SDS011;54510;42.016;23.098;2022-08-19T00:34:31;7.38;;;4.70;;
7336;SDS011;54510;42.016;23.098;2022-08-19T00:36:57;9.27;;;4.45;;
7336;SDS011;54510;42.016;23.098;2022-08-19T00:39:24;6.57;;;4.97;;
7336;SDS011;54510;42.016;23.098;2022-08-19T00:41:50;5.80;;;4.97;;
7336;SDS011;54510;42.016;23.098;2022-08-19T00:44:18;6.78;;;5.68;;
7336;SDS011;54510;42.016;23.098;2022-08-19T00:46:47;8.48;;;5.43;;
7336;SDS011;54510;42.016;23.098;2022-08-19T00:49:16;7.57;;;5.65;;
7336;SDS011;54510;42.016;23.098;2022-08-19T00:51:42;7.57;;;5.32;;
7336;SDS011;54510;42.016;23.098;2022-08-19T00:54:11;6.00;;;5.38;;
7336;SDS011;54510;42.016;23.098;2022-08-19T00:56:37;7.28;;;5.15;;
7336;SDS011;54510;42.016;23.098;2022-08-19T00:59:03;6.15;;;5.00;;
7336;SDS011;54510;42.016;23.098;2022-08-19T01:01:35;6.25;;;4.88;;
7336;SDS011;54510;42.016;23.098;2022-08-19T01:04:02;7.95;;;5.63;;
7336;SDS011;54510;42.016;23.098;2022-08-19T01:06:27;5.43;;;4.93;;
7336;SDS011;54510;42.016;23.098;2022-08-19T01:08:53;6.82;;;4.70;;
7336;SDS011;54510;42.016;23.098;2022-08-19T01:11:20;11.48;;;5.50;;
7336;SDS011;54510;42.016;23.098;2022-08-19T01:13:46;15.25;;;6.05;;
7336;SDS011;54510;42.016;23.098;2022-08-19T01:16:12;12.50;;;5.55;;
7336;SDS011;54510;42.016;23.098;2022-08-19T01:18:40;11.90;;;5.63;;
7336;SDS011;54510;42.016;23.098;2022-08-19T01:21:27;12.20;;;5.50;;
7336;SDS011;54510;42.016;23.098;2022-08-19T01:23:55;12.10;;;5.75;;
7336;SDS011;54510;42.016;23.098;2022-08-19T01:26:21;14.60;;;6.00;;
7336;SDS011;54510;42.016;23.098;2022-08-19T01:28:49;15.38;;;5.13;;
7336;SDS011;54510;42.016;23.098;2022-08-19T01:31:21;11.85;;;6.07;;
7336;SDS011;54510;42.016;23.098;2022-08-19T01:33:50;11.10;;;5.40;;
7336;SDS011;54510;42.016;23.098;2022-08-19T01:36:24;12.45;;;6.10;;
7336;SDS011;54510;42.016;23.098;2022-08-19T01:38:55;12.27;;;5.90;;
7336;SDS011;54510;42.016;23.098;2022-08-19T01:41:21;7.38;;;5.53;;
7336;SDS011;54510;42.016;23.098;2022-08-19T01:43:48;7.68;;;6.20;;
7336;SDS011;54510;42.016;23.098;2022-08-19T01:46:15;7.07;;;5.32;;
7336;SDS011;54510;42.016;23.098;2022-08-19T01:48:41;11.65;;;6.43;;
7336;SDS011;54510;42.016;23.098;2022-08-19T01:51:08;9.13;;;5.47;;
7336;SDS011;54510;42.016;23.098;2022-08-19T01:53:35;8.10;;;6.18;;
7336;SDS011;54510;42.016;23.098;2022-08-19T01:56:02;8.98;;;5.68;;
7336;SDS011;54510;42.016;23.098;2022-08-19T01:58:30;8.25;;;5.57;;
7336;SDS011;54510;42.016;23.098;2022-08-19T02:01:01;10.35;;;5.75;;
7336;SDS011;54510;42.016;23.098;2022-08-19T02:03:26;7.15;;;5.30;;
7336;SDS011;54510;42.016;23.098;2022-08-19T02:05:56;9.25;;;5.50;;
7336;SDS011;54510;42.016;23.098;2022-08-19T02:08:24;7.30;;;6.00;;
7336;SDS011;54510;42.016;23.098;2022-08-19T02:10:54;9.73;;;5.45;;
7336;SDS011;54510;42.016;23.098;2022-08-19T02:13:20;8.40;;;6.22;;
7336;SDS011;54510;42.016;23.098;2022-08-19T02:15:45;7.75;;;5.80;;
7336;SDS011;54510;42.016;23.098;2022-08-19T02:18:11;6.70;;;5.57;;
7336;SDS011;54510;42.016;23.098;2022-08-19T02:20:38;7.18;;;5.78;;
7336;SDS011;54510;42.016;23.098;2022-08-19T02:23:05;9.73;;;6.30;;
7336;SDS011;54510;42.016;23.098;2022-08-19T02:25:30;12.32;;;6.30;;
7336;SDS011;54510;42.016;23.098;2022-08-19T02:27:56;7.18;;;5.88;;
7336;SDS011;54510;42.016;23.098;2022-08-19T02:30:21;6.22;;;5.35;;
7336;SDS011;54510;42.016;23.098;2022-08-19T02:32:47;6.97;;;5.53;;
7336;SDS011;54510;42.016;23.098;2022-08-19T02:35:13;7.38;;;4.47;;
7336;SDS011;54510;42.016;23.098;2022-08-19T02:37:40;18.35;;;5.88;;
7336;SDS011;54510;42.016;23.098;2022-08-19T02:40:25;12.48;;;5.78;;
7336;SDS011;54510;42.016;23.098;2022-08-19T02:42:51;12.13;;;5.68;;
7336;SDS011;54510;42.016;23.098;2022-08-19T02:45:16;16.20;;;6.18;;
7336;SDS011;54510;42.016;23.098;2022-08-19T02:47:42;18.85;;;6.32;;
7336;SDS011;54510;42.016;23.098;2022-08-19T02:50:07;13.00;;;5.50;;
7336;SDS011;54510;42.016;23.098;2022-08-19T02:52:34;15.75;;;5.70;;
7336;SDS011;54510;42.016;23.098;2022-08-19T02:55:00;14.57;;;4.97;;
7336;SDS011;54510;42.016;23.098;2022-08-19T02:57:26;13.30;;;6.05;;
7336;SDS011;54510;42.016;23.098;2022-08-19T02:59:52;9.55;;;6.20;;
7336;SDS011;54510;42.016;23.098;2022-08-19T03:02:18;8.55;;;6.05;;
7336;SDS011;54510;42.016;23.098;2022-08-19T03:04:43;9.30;;;6.20;;
7336;SDS011;54510;42.016;23.098;2022-08-19T03:07:09;7.97;;;5.93;;
7336;SDS011;54510;42.016;23.098;2022-08-19T03:09:38;7.72;;;5.47;;
7336;SDS011;54510;42.016;23.098;2022-08-19T03:12:04;7.90;;;5.93;;
7336;SDS011;54510;42.016;23.098;2022-08-19T03:14:31;7.95;;;6.28;;
7336;SDS011;54510;42.016;23.098;2022-08-19T03:16:57;7.72;;;5.65;;
7336;SDS011;54510;42.016;23.098;2022-08-19T03:19:23;11.18;;;6.38;;
7336;SDS011;54510;42.016;23.098;2022-08-19T03:21:48;11.65;;;6.75;;
7336;SDS011;54510;42.016;23.098;2022-08-19T03:24:16;7.75;;;6.05;;
7336;SDS011;54510;42.016;23.098;2022-08-19T03:26:44;9.43;;;6.43;;
7336;SDS011;54510;42.016;23.098;2022-08-19T03:29:14;8.07;;;6.18;;
7336;SDS011;54510;42.016;23.098;2022-08-19T03:31:41;8.68;;;6.28;;
7336;SDS011;54510;42.016;23.098;2022-08-19T03:34:09;10.07;;;6.03;;
7336;SDS011;54510;42.016;23.098;2022-08-19T03:36:37;9.57;;;6.65;;
7336;SDS011;54510;42.016;23.098;2022-08-19T03:39:02;7.45;;;6.68;;
7336;SDS011;54510;42.016;23.098;2022-08-19T03:41:32;12.73;;;7.07;;
7336;SDS011;54510;42.016;23.098;2022-08-19T03:46:28;9.07;;;6.80;;
7336;SDS011;54510;42.016;23.098;2022-08-19T03:48:56;8.40;;;6.35;;
7336;SDS011;54510;42.016;23.098;2022-08-19T03:51:25;8.50;;;6.95;;
7336;SDS011;54510;42.016;23.098;2022-08-19T03:53:56;9.57;;;6.50;;
7336;SDS011;54510;42.016;23.098;2022-08-19T03:56:23;8.40;;;5.90;;
7336;SDS011;54510;42.016;23.098;2022-08-19T03:58:50;9.57;;;6.25;;
7336;SDS011;54510;42.016;23.098;2022-08-19T04:01:21;9.25;;;6.20;;
7336;SDS011;54510;42.016;23.098;2022-08-19T04:03:48;9.93;;;6.00;;
7336;SDS011;54510;42.016;23.098;2022-08-19T04:06:18;9.20;;;6.60;;
7336;SDS011;54510;42.016;23.098;2022-08-19T04:08:50;7.43;;;5.82;;
7336;SDS011;54510;42.016;23.098;2022-08-19T04:11:19;7.97;;;5.57;;
7336;SDS011;54510;42.016;23.098;2022-08-19T04:13:50;10.80;;;6.28;;
7336;SDS011;54510;42.016;23.098;2022-08-19T04:16:18;8.40;;;5.47;;
7336;SDS011;54510;42.016;23.098;2022-08-19T04:18:45;5.90;;;4.93;;
7336;SDS011;54510;42.016;23.098;2022-08-19T04:21:15;6.63;;;5.50;;
7336;SDS011;54510;42.016;23.098;2022-08-19T04:23:48;9.27;;;5.43;;
7336;SDS011;54510;42.016;23.098;2022-08-19T04:26:14;11.02;;;6.95;;
7336;SDS011;54510;42.016;23.098;2022-08-19T04:28:42;19.88;;;12.88;;
7336;SDS011;54510;42.016;23.098;2022-08-19T04:31:12;12.80;;;7.30;;
7336;SDS011;54510;42.016;23.098;2022-08-19T04:33:39;7.47;;;6.10;;
7336;SDS011;54510;42.016;23.098;2022-08-19T04:36:05;10.80;;;5.43;;
7336;SDS011;54510;42.016;23.098;2022-08-19T04:38:31;12.27;;;6.07;;
7336;SDS011;54510;42.016;23.098;2022-08-19T04:40:56;9.02;;;5.93;;
7336;SDS011;54510;42.016;23.098;2022-08-19T04:43:40;12.30;;;6.65;;
7336;SDS011;54510;42.016;23.098;2022-08-19T04:46:09;11.20;;;9.02;;
7336;SDS011;54510;42.016;23.098;2022-08-19T04:48:37;13.35;;;7.72;;
7336;SDS011;54510;42.016;23.098;2022-08-19T04:51:06;17.05;;;8.18;;
7336;SDS011;54510;42.016;23.098;2022-08-19T04:53:33;13.50;;;7.05;;
7336;SDS011;54510;42.016;23.098;2022-08-19T04:56:04;12.15;;;7.28;;
7336;SDS011;54510;42.016;23.098;2022-08-19T04:58:35;6.93;;;6.22;;
7336;SDS011;54510;42.016;23.098;2022-08-19T05:01:02;8.15;;;6.80;;
7336;SDS011;54510;42.016;23.098;2022-08-19T05:03:28;8.43;;;6.43;;
7336;SDS011;54510;42.016;23.098;2022-08-19T05:05:57;8.48;;;6.13;;
7336;SDS011;54510;42.016;23.098;2022-08-19T05:08:23;9.85;;;6.60;;
7336;SDS011;54510;42.016;23.098;2022-08-19T05:10:50;11.55;;;6.93;;
7336;SDS011;54510;42.016;23.098;2022-08-19T05:13:17;8.68;;;6.72;;
7336;SDS011;54510;42.016;23.098;2022-08-19T05:15:44;9.38;;;7.15;;
7336;SDS011;54510;42.016;23.098;2022-08-19T05:18:18;10.48;;;7.18;;
7336;SDS011;54510;42.016;23.098;2022-08-19T05:21:05;9.82;;;6.38;;
7336;SDS011;54510;42.016;23.098;2022-08-19T05:23:56;8.85;;;6.53;;
7336;SDS011;54510;42.016;23.098;2022-08-19T05:26:22;18.70;;;7.43;;
7336;SDS011;54510;42.016;23.098;2022-08-19T05:28:49;31.42;;;25.58;;
7336;SDS011;54510;42.016;23.098;2022-08-19T05:31:14;21.00;;;17.73;;
7336;SDS011;54510;42.016;23.098;2022-08-19T05:33:40;17.67;;;13.90;;
7336;SDS011;54510;42.016;23.098;2022-08-19T05:36:05;19.67;;;16.02;;
7336;SDS011;54510;42.016;23.098;2022-08-19T05:38:32;8.30;;;7.10;;
7336;SDS011;54510;42.016;23.098;2022-08-19T05:41:00;16.60;;;7.70;;
7336;SDS011;54510;42.016;23.098;2022-08-19T05:43:25;14.75;;;7.57;;
7336;SDS011;54510;42.016;23.098;2022-08-19T05:45:51;17.25;;;7.57;;
7336;SDS011;54510;42.016;23.098;2022-08-19T05:48:16;14.55;;;7.82;;
7336;SDS011;54510;42.016;23.098;2022-08-19T05:50:45;13.43;;;7.82;;
7336;SDS011;54510;42.016;23.098;2022-08-19T05:53:11;17.80;;;8.70;;
7336;SDS011;54510;42.016;23.098;2022-08-19T05:55:41;13.02;;;8.38;;
7336;SDS011;54510;42.016;23.098;2022-08-19T05:58:07;14.57;;;8.38;;
7336;SDS011;54510;42.016;23.098;2022-08-19T06:00:33;11.82;;;7.85;;
7336;SDS011;54510;42.016;23.098;2022-08-19T06:02:59;12.55;;;8.43;;
7336;SDS011;54510;42.016;23.098;2022-08-19T06:05:28;16.77;;;9.43;;
7336;SDS011;54510;42.016;23.098;2022-08-19T06:07:56;22.13;;;16.13;;
7336;SDS011;54510;42.016;23.098;2022-08-19T06:10:23;14.18;;;10.43;;
7336;SDS011;54510;42.016;23.098;2022-08-19T06:12:49;12.98;;;9.05;;
7336;SDS011;54510;42.016;23.098;2022-08-19T06:15:15;13.05;;;7.88;;
7336;SDS011;54510;42.016;23.098;2022-08-19T06:17:41;13.63;;;7.50;;
7336;SDS011;54510;42.016;23.098;2022-08-19T06:20:10;14.43;;;7.47;;
7336;SDS011;54510;42.016;23.098;2022-08-19T06:22:39;14.07;;;8.32;;
7336;SDS011;54510;42.016;23.098;2022-08-19T06:25:09;8.00;;;6.72;;
7336;SDS011;54510;42.016;23.098;2022-08-19T06:27:35;8.98;;;7.10;;
7336;SDS011;54510;42.016;23.098;2022-08-19T06:30:01;14.57;;;9.57;;
7336;SDS011;54510;42.016;23.098;2022-08-19T06:32:28;9.98;;;7.93;;
7336;SDS011;54510;42.016;23.098;2022-08-19T06:34:54;12.25;;;8.73;;
7336;SDS011;54510;42.016;23.098;2022-08-19T06:37:20;8.90;;;6.82;;
7336;SDS011;54510;42.016;23.098;2022-08-19T06:39:46;12.77;;;7.50;;
7336;SDS011;54510;42.016;23.098;2022-08-19T06:42:12;13.50;;;8.05;;
7336;SDS011;54510;42.016;23.098;2022-08-19T06:44:42;11.77;;;7.63;;
7336;SDS011;54510;42.016;23.098;2022-08-19T06:47:11;14.40;;;8.02;;
7336;SDS011;54510;42.016;23.098;2022-08-19T06:49:39;12.10;;;7.93;;
7336;SDS011;54510;42.016;23.098;2022-08-19T06:52:05;12.07;;;7.40;;
7336;SDS011;54510;42.016;23.098;2022-08-19T06:54:31;13.02;;;8.43;;
7336;SDS011;54510;42.016;23.098;2022-08-19T06:56:57;12.35;;;7.30;;
7336;SDS011;54510;42.016;23.098;2022-08-19T06:59:27;11.07;;;6.78;;
7336;SDS011;54510;42.016;23.098;2022-08-19T07:01:56;10.50;;;8.23;;
7336;SDS011;54510;42.016;23.098;2022-08-19T07:04:23;8.98;;;7.10;;
7336;SDS011;54510;42.016;23.098;2022-08-19T07:06:57;10.98;;;7.43;;
7336;SDS011;54510;42.016;23.098;2022-08-19T07:09:24;10.88;;;6.85;;
7336;SDS011;54510;42.016;23.098;2022-08-19T07:11:50;12.48;;;7.05;;
7336;SDS011;54510;42.016;23.098;2022-08-19T07:14:18;12.00;;;6.63;;
7336;SDS011;54510;42.016;23.098;2022-08-19T07:16:48;9.48;;;7.18;;
7336;SDS011;54510;42.016;23.098;2022-08-19T07:19:17;13.18;;;7.28;;
7336;SDS011;54510;42.016;23.098;2022-08-19T07:21:43;11.45;;;7.03;;
7336;SDS011;54510;42.016;23.098;2022-08-19T07:24:10;9.95;;;7.07;;
7336;SDS011;54510;42.016;23.098;2022-08-19T07:26:38;19.05;;;8.15;;
7336;SDS011;54510;42.016;23.098;2022-08-19T07:29:05;18.48;;;7.68;;
7336;SDS011;54510;42.016;23.098;2022-08-19T07:31:31;9.27;;;6.35;;
7336;SDS011;54510;42.016;23.098;2022-08-19T07:34:01;13.93;;;6.70;;
7336;SDS011;54510;42.016;23.098;2022-08-19T07:36:28;10.20;;;7.03;;
7336;SDS011;54510;42.016;23.098;2022-08-19T07:38:57;13.57;;;7.00;;
7336;SDS011;54510;42.016;23.098;2022-08-19T07:41:24;19.60;;;11.02;;
7336;SDS011;54510;42.016;23.098;2022-08-19T07:43:52;17.30;;;7.32;;
7336;SDS011;54510;42.016;23.098;2022-08-19T07:46:18;11.95;;;8.07;;
7336;SDS011;54510;42.016;23.098;2022-08-19T07:48:45;10.60;;;6.80;;
7336;SDS011;54510;42.016;23.098;2022-08-19T07:51:13;14.23;;;7.38;;
7336;SDS011;54510;42.016;23.098;2022-08-19T07:53:44;8.93;;;6.38;;
7336;SDS011;54510;42.016;23.098;2022-08-19T07:56:11;12.63;;;6.57;;
7336;SDS011;54510;42.016;23.098;2022-08-19T07:58:38;8.82;;;6.05;;
7336;SDS011;54510;42.016;23.098;2022-08-19T08:01:07;14.57;;;8.55;;
7336;SDS011;54510;42.016;23.098;2022-08-19T08:03:35;16.55;;;8.45;;
7336;SDS011;54510;42.016;23.098;2022-08-19T08:06:20;12.32;;;7.18;;
7336;SDS011;54510;42.016;23.098;2022-08-19T08:09:04;9.90;;;6.38;;
7336;SDS011;54510;42.016;23.098;2022-08-19T08:11:37;9.25;;;6.70;;
7336;SDS011;54510;42.016;23.098;2022-08-19T08:14:04;12.82;;;6.88;;
7336;SDS011;54510;42.016;23.098;2022-08-19T08:16:33;12.38;;;6.70;;
7336;SDS011;54510;42.016;23.098;2022-08-19T08:19:00;9.98;;;6.68;;
7336;SDS011;54510;42.016;23.098;2022-08-19T08:21:26;10.63;;;6.68;;
7336;SDS011;54510;42.016;23.098;2022-08-19T08:23:51;13.02;;;6.40;;
7336;SDS011;54510;42.016;23.098;2022-08-19T08:26:18;10.38;;;7.10;;
7336;SDS011;54510;42.016;23.098;2022-08-19T08:28:43;11.40;;;6.45;;
7336;SDS011;54510;42.016;23.098;2022-08-19T08:31:09;11.43;;;6.32;;
7336;SDS011;54510;42.016;23.098;2022-08-19T08:33:35;11.57;;;7.10;;
7336;SDS011;54510;42.016;23.098;2022-08-19T08:36:02;13.60;;;6.97;;
7336;SDS011;54510;42.016;23.098;2022-08-19T08:38:30;14.30;;;6.47;;
7336;SDS011;54510;42.016;23.098;2022-08-19T08:40:58;8.70;;;6.70;;
7336;SDS011;54510;42.016;23.098;2022-08-19T08:43:38;13.20;;;6.47;;
7336;SDS011;54510;42.016;23.098;2022-08-19T08:52:06;9.90;;;6.40;;
7336;SDS011;54510;42.016;23.098;2022-08-19T08:54:45;14.10;;;6.18;;
7336;SDS011;54510;42.016;23.098;2022-08-19T09:00:00;13.82;;;7.85;;
7336;SDS011;54510;42.016;23.098;2022-08-19T09:02:30;9.15;;;6.57;;
7336;SDS011;54510;42.016;23.098;2022-08-19T09:04:56;13.73;;;8.10;;
7336;SDS011;54510;42.016;23.098;2022-08-19T09:10:01;15.98;;;7.32;;
7336;SDS011;54510;42.016;23.098;2022-08-19T09:15:42;10.07;;;6.20;;
7336;SDS011;54510;42.016;23.098;2022-08-19T09:18:17;7.55;;;6.13;;
7336;SDS011;54510;42.016;23.098;2022-08-19T09:20:43;13.02;;;6.15;;
7336;SDS011;54510;42.016;23.098;2022-08-19T09:23:08;11.02;;;5.75;;
7336;SDS011;54510;42.016;23.098;2022-08-19T09:25:35;9.05;;;5.85;;
7336;SDS011;54510;42.016;23.098;2022-08-19T09:28:01;8.30;;;4.90;;
7336;SDS011;54510;42.016;23.098;2022-08-19T09:30:31;5.05;;;3.67;;
7336;SDS011;54510;42.016;23.098;2022-08-19T09:33:05;7.68;;;5.10;;
7336;SDS011;54510;42.016;23.098;2022-08-19T09:35:31;6.47;;;4.97;;
7336;SDS011;54510;42.016;23.098;2022-08-19T09:37:58;8.23;;;5.18;;
7336;SDS011;54510;42.016;23.098;2022-08-19T09:40:24;8.45;;;5.00;;
7336;SDS011;54510;42.016;23.098;2022-08-19T09:42:52;9.55;;;5.60;;
7336;SDS011;54510;42.016;23.098;2022-08-19T09:45:19;8.43;;;5.45;;
7336;SDS011;54510;42.016;23.098;2022-08-19T09:47:47;11.65;;;5.40;;
7336;SDS011;54510;42.016;23.098;2022-08-19T09:50:13;13.60;;;5.47;;
7336;SDS011;54510;42.016;23.098;2022-08-19T09:52:39;17.42;;;5.05;;
7336;SDS011;54510;42.016;23.098;2022-08-19T09:55:07;11.93;;;5.75;;
7336;SDS011;54510;42.016;23.098;2022-08-19T09:57:35;10.68;;;6.80;;
7336;SDS011;54510;42.016;23.098;2022-08-19T10:00:01;10.48;;;4.85;;
7336;SDS011;54510;42.016;23.098;2022-08-19T10:02:28;8.68;;;5.43;;
7336;SDS011;54510;42.016;23.098;2022-08-19T10:04:53;9.85;;;5.25;;
7336;SDS011;54510;42.016;23.098;2022-08-19T10:07:37;10.18;;;4.82;;
7336;SDS011;54510;42.016;23.098;2022-08-19T10:10:04;8.32;;;5.10;;
7336;SDS011;54510;42.016;23.098;2022-08-19T10:12:31;6.38;;;5.10;;
7336;SDS011;54510;42.016;23.098;2022-08-19T10:14:58;7.28;;;5.38;;
7336;SDS011;54510;42.016;23.098;2022-08-19T10:17:24;6.50;;;4.75;;
7336;SDS011;54510;42.016;23.098;2022-08-19T10:19:50;12.93;;;5.20;;
7336;SDS011;54510;42.016;23.098;2022-08-19T10:22:16;8.77;;;4.80;;
7336;SDS011;54510;42.016;23.098;2022-08-19T10:24:43;8.32;;;4.82;;
7336;SDS011;54510;42.016;23.098;2022-08-19T10:27:08;7.70;;;4.57;;
7336;SDS011;54510;42.016;23.098;2022-08-19T10:29:34;7.28;;;5.10;;
7336;SDS011;54510;42.016;23.098;2022-08-19T10:32:03;6.97;;;4.28;;
7336;SDS011;54510;42.016;23.098;2022-08-19T10:36:58;8.82;;;5.25;;
7336;SDS011;54510;42.016;23.098;2022-08-19T10:39:25;10.38;;;5.10;;
7336;SDS011;54510;42.016;23.098;2022-08-19T10:41:54;6.05;;;4.15;;
7336;SDS011;54510;42.016;23.098;2022-08-19T10:44:21;6.47;;;4.70;;
7336;SDS011;54510;42.016;23.098;2022-08-19T10:46:48;8.20;;;4.63;;
7336;SDS011;54510;42.016;23.098;2022-08-19T10:49:13;9.80;;;4.60;;
7336;SDS011;54510;42.016;23.098;2022-08-19T10:51:39;7.70;;;4.50;;
7336;SDS011;54510;42.016;23.098;2022-08-19T10:54:24;7.90;;;5.38;;
7336;SDS011;54510;42.016;23.098;2022-08-19T10:57:10;9.57;;;5.10;;
7336;SDS011;54510;42.016;23.098;2022-08-19T10:59:35;6.13;;;4.22;;
7336;SDS011;54510;42.016;23.098;2022-08-19T11:02:02;8.43;;;4.80;;
7336;SDS011;54510;42.016;23.098;2022-08-19T11:04:29;6.75;;;5.57;;
7336;SDS011;54510;42.016;23.098;2022-08-19T11:06:56;10.10;;;6.13;;
7336;SDS011;54510;42.016;23.098;2022-08-19T11:09:22;5.70;;;4.28;;
7336;SDS011;54510;42.016;23.098;2022-08-19T11:11:49;5.30;;;4.30;;
7336;SDS011;54510;42.016;23.098;2022-08-19T11:14:18;10.15;;;4.70;;
7336;SDS011;54510;42.016;23.098;2022-08-19T11:16:45;4.38;;;3.67;;
7336;SDS011;54510;42.016;23.098;2022-08-19T11:19:15;7.22;;;4.30;;
7336;SDS011;54510;42.016;23.098;2022-08-19T11:21:44;6.50;;;4.68;;
7336;SDS011;54510;42.016;23.098;2022-08-19T11:24:13;12.32;;;5.43;;
7336;SDS011;54510;42.016;23.098;2022-08-19T11:26:41;6.85;;;4.43;;
7336;SDS011;54510;42.016;23.098;2022-08-19T11:29:09;10.43;;;4.90;;
7336;SDS011;54510;42.016;23.098;2022-08-19T11:31:36;5.90;;;4.25;;
7336;SDS011;54510;42.016;23.098;2022-08-19T11:34:05;9.63;;;4.72;;
7336;SDS011;54510;42.016;23.098;2022-08-19T11:36:33;7.07;;;3.47;;
7336;SDS011;54510;42.016;23.098;2022-08-19T11:39:03;14.20;;;5.53;;
7336;SDS011;54510;42.016;23.098;2022-08-19T11:41:30;5.88;;;3.67;;
7336;SDS011;54510;42.016;23.098;2022-08-19T11:43:56;5.72;;;3.88;;
7336;SDS011;54510;42.016;23.098;2022-08-19T11:46:23;5.72;;;4.03;;
7336;SDS011;54510;42.016;23.098;2022-08-19T11:48:50;5.53;;;4.15;;
7336;SDS011;54510;42.016;23.098;2022-08-19T11:51:17;10.45;;;4.38;;
7336;SDS011;54510;42.016;23.098;2022-08-19T11:53:45;7.28;;;3.95;;
7336;SDS011;54510;42.016;23.098;2022-08-19T11:56:10;7.10;;;4.45;;
7336;SDS011;54510;42.016;23.098;2022-08-19T11:58:36;9.45;;;4.50;;
7336;SDS011;54510;42.016;23.098;2022-08-19T12:01:06;10.35;;;4.50;;
7336;SDS011;54510;42.016;23.098;2022-08-19T12:03:36;9.93;;;4.63;;
7336;SDS011;54510;42.016;23.098;2022-08-19T12:06:06;7.00;;;4.88;;
7336;SDS011;54510;42.016;23.098;2022-08-19T12:08:38;10.00;;;5.18;;
7336;SDS011;54510;42.016;23.098;2022-08-19T12:11:04;8.52;;;4.47;;
7336;SDS011;54510;42.016;23.098;2022-08-19T12:13:33;7.68;;;4.15;;
7336;SDS011;54510;42.016;23.098;2022-08-19T12:15:59;10.07;;;4.97;;
7336;SDS011;54510;42.016;23.098;2022-08-19T12:18:25;6.90;;;3.72;;
7336;SDS011;54510;42.016;23.098;2022-08-19T12:20:51;11.52;;;4.82;;
7336;SDS011;54510;42.016;23.098;2022-08-19T12:23:19;9.65;;;4.50;;
7336;SDS011;54510;42.016;23.098;2022-08-19T12:25:47;8.27;;;4.22;;
7336;SDS011;54510;42.016;23.098;2022-08-19T12:28:16;4.67;;;3.63;;
7336;SDS011;54510;42.016;23.098;2022-08-19T12:30:43;9.20;;;4.32;;
7336;SDS011;54510;42.016;23.098;2022-08-19T12:33:09;12.15;;;4.18;;
7336;SDS011;54510;42.016;23.098;2022-08-19T12:35:34;10.02;;;4.30;;
7336;SDS011;54510;42.016;23.098;2022-08-19T12:38:00;17.20;;;3.88;;
7336;SDS011;54510;42.016;23.098;2022-08-19T12:40:27;8.32;;;3.72;;
7336;SDS011;54510;42.016;23.098;2022-08-19T12:42:53;8.70;;;4.03;;
7336;SDS011;54510;42.016;23.098;2022-08-19T12:45:19;10.18;;;4.07;;
7336;SDS011;54510;42.016;23.098;2022-08-19T12:47:45;12.95;;;4.43;;
7336;SDS011;54510;42.016;23.098;2022-08-19T12:50:11;10.02;;;4.18;;
7336;SDS011;54510;42.016;23.098;2022-08-19T12:52:37;5.45;;;3.55;;
7336;SDS011;54510;42.016;23.098;2022-08-19T12:55:03;8.25;;;3.83;;
7336;SDS011;54510;42.016;23.098;2022-08-19T12:57:30;8.68;;;3.95;;
7336;SDS011;54510;42.016;23.098;2022-08-19T13:00:04;11.40;;;3.60;;
7336;SDS011;54510;42.016;23.098;2022-08-19T13:02:37;10.73;;;3.80;;
7336;SDS011;54510;42.016;23.098;2022-08-19T13:05:04;10.27;;;3.92;;
7336;SDS011;54510;42.016;23.098;2022-08-19T13:07:33;12.82;;;3.95;;
7336;SDS011;54510;42.016;23.098;2022-08-19T13:09:58;9.48;;;3.13;;
7336;SDS011;54510;42.016;23.098;2022-08-19T13:12:24;8.52;;;4.07;;
7336;SDS011;54510;42.016;23.098;2022-08-19T13:14:52;5.00;;;3.70;;
7336;SDS011;54510;42.016;23.098;2022-08-19T13:17:18;6.60;;;4.10;;
7336;SDS011;54510;42.016;23.098;2022-08-19T13:19:43;6.72;;;3.70;;
7336;SDS011;54510;42.016;23.098;2022-08-19T13:22:08;8.10;;;3.63;;
7336;SDS011;54510;42.016;23.098;2022-08-19T13:24:34;8.52;;;3.92;;
7336;SDS011;54510;42.016;23.098;2022-08-19T13:27:01;7.60;;;3.35;;
7336;SDS011;54510;42.016;23.098;2022-08-19T13:29:27;8.95;;;3.75;;
7336;SDS011;54510;42.016;23.098;2022-08-19T13:32:11;4.20;;;3.00;;
7336;SDS011;54510;42.016;23.098;2022-08-19T13:34:55;8.10;;;3.42;;
7336;SDS011;54510;42.016;23.098;2022-08-19T13:37:21;4.97;;;3.30;;
7336;SDS011;54510;42.016;23.098;2022-08-19T13:40:06;8.85;;;3.92;;
7336;SDS011;54510;42.016;23.098;2022-08-19T13:42:39;7.13;;;3.42;;
7336;SDS011;54510;42.016;23.098;2022-08-19T13:45:05;6.47;;;3.53;;
7336;SDS011;54510;42.016;23.098;2022-08-19T13:47:32;7.55;;;3.30;;
7336;SDS011;54510;42.016;23.098;2022-08-19T13:49:59;7.75;;;3.65;;
7336;SDS011;54510;42.016;23.098;2022-08-19T13:52:25;9.75;;;4.05;;
7336;SDS011;54510;42.016;23.098;2022-08-19T13:54:51;8.85;;;3.90;;
7336;SDS011;54510;42.016;23.098;2022-08-19T13:57:16;8.25;;;4.13;;
7336;SDS011;54510;42.016;23.098;2022-08-19T13:59:42;5.93;;;3.13;;
7336;SDS011;54510;42.016;23.098;2022-08-19T14:02:07;8.43;;;3.92;;
7336;SDS011;54510;42.016;23.098;2022-08-19T14:04:33;8.02;;;3.58;;
7336;SDS011;54510;42.016;23.098;2022-08-19T14:06:58;10.80;;;3.40;;
7336;SDS011;54510;42.016;23.098;2022-08-19T14:09:24;9.88;;;3.63;;
7336;SDS011;54510;42.016;23.098;2022-08-19T14:11:49;8.52;;;3.53;;
7336;SDS011;54510;42.016;23.098;2022-08-19T14:14:15;6.68;;;3.65;;
7336;SDS011;54510;42.016;23.098;2022-08-19T14:16:41;9.13;;;3.75;;
7336;SDS011;54510;42.016;23.098;2022-08-19T14:19:07;9.45;;;4.30;;
7336;SDS011;54510;42.016;23.098;2022-08-19T14:21:33;8.68;;;3.63;;
7336;SDS011;54510;42.016;23.098;2022-08-19T14:23:59;7.50;;;4.10;;
7336;SDS011;54510;42.016;23.098;2022-08-19T14:26:24;9.20;;;3.70;;
7336;SDS011;54510;42.016;23.098;2022-08-19T14:28:50;11.02;;;3.53;;
7336;SDS011;54510;42.016;23.098;2022-08-19T14:31:17;5.85;;;3.83;;
7336;SDS011;54510;42.016;23.098;2022-08-19T14:33:47;7.47;;;3.85;;
7336;SDS011;54510;42.016;23.098;2022-08-19T14:36:13;8.13;;;4.60;;
7336;SDS011;54510;42.016;23.098;2022-08-19T14:38:38;6.10;;;3.55;;
7336;SDS011;54510;42.016;23.098;2022-08-19T14:41:15;8.38;;;4.32;;
7336;SDS011;54510;42.016;23.098;2022-08-19T14:43:48;10.15;;;4.57;;
7336;SDS011;54510;42.016;23.098;2022-08-19T14:46:16;8.83;;;4.10;;
7336;SDS011;54510;42.016;23.098;2022-08-19T14:48:47;13.10;;;3.80;;
7336;SDS011;54510;42.016;23.098;2022-08-19T14:51:14;13.90;;;4.93;;
7336;SDS011;54510;42.016;23.098;2022-08-19T14:53:40;13.40;;;5.45;;
7336;SDS011;54510;42.016;23.098;2022-08-19T14:56:10;9.75;;;4.30;;
7336;SDS011;54510;42.016;23.098;2022-08-19T14:58:38;11.27;;;4.20;;
7336;SDS011;54510;42.016;23.098;2022-08-19T15:01:07;7.00;;;4.32;;
7336;SDS011;54510;42.016;23.098;2022-08-19T15:03:33;7.88;;;3.63;;